Sint-Genesius-Rode, Belgium
Current Conditions -  °F | °C
As of 12:50 AM on Monday 22 Dec 2014 (Local Time) from EBBR Reporting Station
Broken Clouds Broken Clouds  
Wind Chill:   Ceiling: 1500
Heat Index:   Visibility: 6mi
Dew Point:   Wind: 24mph
Humidity: 81%   Direction: 220°SW
Pressure: 30.21"   Gusts: NA
Location:  50.75°N, 4.36°E
Report Text: EBBR 212350Z 22021KT 9999 BKN015 BKN021 08/05 Q1023 TEMPO 23023G35KT
Loading
Personal Weather Stations






























Interactive Weather Map New forecast layout! Learn more

10-Day Weather Forecast

Advertisements
Track Severe Weather on mobile